Current Weather

Seattle-Tacoma Intl

Seattle, Washington (KSEA)

Report from: Friday, July 12, 2024 2:53 PM PDT
Current time: Friday, July 12, 2024 4:10 PM PDT

Nearby weather – Weather history – Daily summaries
Weather forecast

Temperature27.2°C (81.0°F)
Heat index27.2°C (81.0°F)
Dew point11.7°C (53.1°F)
Winds 7 kts (3.6 m/s, 8.1 mph) West-Northwest (290°)
Visibility10 mi. (16.1 km)
Clouds Sky clear
Altimeter30.06 in.Hg (1018 mB)
Relative humidity38 %
Density altitude1,435 ft. (437 m)
Sea-level pressure101.8 kPa (1018 mB, 30.07 in.Hg)
Remarks Automated weather observing station with precipitation discriminator
Flight conditions Visual Meteorological Conditions
Raw dataKSEA 122153Z 29007KT 10SM CLR 27/12 A3006 RMK AO2 SLP182 T02720117
An unhandled exception has occurred. See browser dev tools for details. Reload 🗙